Airfield :
LOGIN :

Register | Disclaimer

   EN    FR    IT 

 










Legend :    VFR   Marginal VFR   IFR   Intensive IFR   Very Intensive IFR
Visi :
Ceiling :
>= 8 km
>= 3000ft
5 to 8 km
1000 to 3000 ft
1500m to 5 km
500 to 1000 ft
800 to 1500m
200 to 500 ft
< 800m
< 200 ft
Symbols :   Thunderstorms  Fog  Heavy snow  Heavy precipitations  Wind > 20 kt
SIGMETs :     Misc.  Thunderstorms  Icing  Turbulence  Mountain Waves  Volcanic Ashes






- Airport Elevation : 1682 ft
- IATA code : VIT


LEVT - Vitoria Gasteiz

CURRENT METAR :
  • 080330Z 22003KT 160V310 6000 SCT032 BKN043 BKN069 04/02 Q1008

EXPIRED METARs :
  • 080300Z 22006KT 180V260 6000 BKN035 BKN042 03/02 Q1008
  • 080230Z 29008KT 4100 -RA VV016 03/02 Q1008 RERA
  • 080209Z 30014KT 3800 RA VV015 03/02 Q1008
  • 080200Z 34013G25KT 300V020 3600 -RA BR FEW020 SCT039 BKN046 04/03 Q1008
  • 080130Z VRB02KT 7000 FEW025 SCT060 05/05 Q1008 RERA
  • 080100Z 25004KT 7000 -RA SCT021 BKN027 OVC036 05/05 Q1008 RERA

TAF AMD TAF LEVT
Valid from the 08 at 02:00 until the 09 at 00:00 UTC


080210Z 0802/0824 26009KT 7000 SCT020 BKN035 TX03/0806Z TN01/0818Z
TEMPO 0802/0806 4000 RA
TEMPO 0802/0814 27015G25KT
TEMPO 0814/0824 27018G28KT 3000 SHRA SCT020TCU
PROB30
TEMPO 0818/0824 TS SCT020CB



MET'MAP, your aeronautical weather chart ! - Copyright ORBIFLY December 2007 - Disclaimer

ORBIFLY MET'MAP TEAM :

Programming & Development : Alexandra Zaïnal
Concept & original design : Baudouin d'Aumeries
Assistance for programming : Marc-Olivier Méhu
Technical & hardware support : Manuel Goepfert

Contact : metmap@orbifly.com




SOURCES & CREDITS :

   NOAA